createdAt,value
2023-05-01T00:01:07.976Z,11.73
2023-05-01T00:03:34.480Z,13.65
2023-05-01T00:06:01.823Z,15.07
2023-05-01T00:08:28.277Z,14.52
2023-05-01T00:10:54.667Z,13.52
2023-05-01T00:13:22.487Z,12.27
2023-05-01T00:15:48.888Z,16.92
2023-05-01T00:18:15.500Z,18.17
2023-05-01T00:20:42.193Z,12.70
2023-05-01T00:23:08.561Z,16.73
2023-05-01T00:25:34.939Z,15.48
2023-05-01T00:28:01.310Z,21.33
2023-05-01T00:30:29.127Z,17.23
2023-05-01T00:32:55.585Z,13.32
2023-05-01T00:35:22.031Z,17.02
2023-05-01T00:37:48.449Z,17.00
2023-05-01T00:40:14.828Z,20.02
2023-05-01T00:42:41.212Z,13.50
2023-05-01T00:45:08.133Z,13.40
2023-05-01T00:47:37.068Z,12.68
2023-05-01T00:50:03.877Z,12.57
2023-05-01T00:52:30.505Z,13.30
2023-05-01T00:54:57.409Z,14.02
2023-05-01T00:57:23.994Z,13.50
2023-05-01T00:59:50.431Z,13.95
2023-05-01T01:02:16.817Z,18.00
2023-05-01T01:04:45.738Z,16.02
2023-05-01T01:07:15.944Z,13.88
2023-05-01T01:09:45.965Z,15.43
2023-05-01T01:12:15.683Z,14.40
2023-05-01T01:14:44.947Z,18.42
2023-05-01T01:17:14.080Z,15.98
2023-05-01T01:20:10.659Z,15.60
2023-05-01T01:22:40.034Z,20.77
2023-05-01T01:25:19.710Z,13.20
2023-05-01T01:28:00.963Z,18.50
2023-05-01T01:30:49.472Z,19.35
2023-05-01T01:33:29.705Z,13.20
2023-05-01T01:35:58.118Z,15.77
2023-05-01T01:38:27.211Z,14.65
2023-05-01T01:40:56.819Z,18.30
2023-05-01T01:45:53.816Z,13.50
2023-05-01T01:48:22.617Z,16.63
2023-05-01T01:50:49.057Z,25.65
2023-05-01T01:53:18.419Z,18.83
2023-05-01T01:55:45.719Z,18.98
2023-05-01T01:58:13.263Z,14.88
2023-05-01T02:00:40.155Z,15.98
2023-05-01T02:03:07.109Z,20.52
2023-05-01T02:05:34.309Z,16.33
2023-05-01T02:08:02.145Z,15.18
2023-05-01T02:10:30.039Z,14.93
2023-05-01T02:12:58.025Z,16.25
2023-05-01T02:15:25.409Z,13.13
2023-05-01T02:17:52.365Z,14.52
2023-05-01T02:20:19.702Z,16.40
2023-05-01T02:22:46.148Z,16.83
2023-05-01T02:25:13.046Z,15.40
2023-05-01T02:27:43.731Z,16.67
2023-05-01T02:30:11.252Z,14.43
2023-05-01T02:32:37.685Z,16.85
2023-05-01T02:35:04.506Z,15.07
2023-05-01T02:37:31.205Z,18.80
2023-05-01T02:39:58.081Z,14.35
2023-05-01T02:42:26.003Z,19.00
2023-05-01T02:44:55.263Z,16.42
2023-05-01T02:47:23.153Z,19.83
2023-05-01T02:49:50.877Z,16.33
2023-05-01T02:52:18.257Z,17.65
2023-05-01T02:54:44.833Z,21.05
2023-05-01T02:57:11.498Z,16.42
2023-05-01T02:59:37.890Z,17.48
2023-05-01T03:02:05.682Z,21.65
2023-05-01T03:04:32.092Z,18.10
2023-05-01T03:06:58.549Z,19.35
2023-05-01T03:09:24.944Z,16.27
2023-05-01T03:11:51.364Z,17.70
2023-05-01T03:14:17.774Z,16.40
2023-05-01T03:16:44.216Z,17.95
2023-05-01T03:19:12.041Z,17.00
2023-05-01T03:21:38.461Z,19.05
2023-05-01T03:24:05.026Z,16.40
2023-05-01T03:26:31.485Z,14.57
2023-05-01T03:28:57.890Z,18.83
2023-05-01T03:31:24.360Z,18.98
2023-05-01T03:33:50.809Z,17.38
2023-05-01T03:36:18.604Z,15.00
2023-05-01T03:38:45.032Z,19.77
2023-05-01T03:41:11.441Z,17.25
2023-05-01T03:43:37.804Z,19.83
2023-05-01T03:46:04.182Z,16.33
2023-05-01T03:48:30.790Z,17.35
2023-05-01T03:50:57.140Z,17.63
2023-05-01T03:53:25.003Z,15.90
2023-05-01T03:55:51.422Z,14.73
2023-05-01T03:58:17.837Z,15.18
2023-05-01T04:00:44.259Z,15.20
2023-05-01T04:03:10.736Z,17.90
2023-05-01T04:05:37.233Z,19.83
2023-05-01T04:08:03.689Z,17.52
2023-05-01T04:10:31.462Z,18.42
2023-05-01T04:12:57.822Z,17.25
2023-05-01T04:15:24.282Z,15.77
2023-05-01T04:17:50.770Z,15.63
2023-05-01T04:20:17.205Z,16.42
2023-05-01T04:22:43.574Z,15.18
2023-05-01T04:25:10.149Z,13.60
2023-05-01T04:27:37.877Z,14.70
2023-05-01T04:30:04.605Z,18.38
2023-05-01T04:32:31.009Z,15.75
2023-05-01T04:34:57.897Z,16.48
2023-05-01T04:37:24.409Z,14.82
2023-05-01T04:39:50.810Z,15.20
2023-05-01T04:42:17.266Z,17.30
2023-05-01T04:44:45.091Z,17.98
2023-05-01T04:47:11.655Z,13.88
2023-05-01T04:49:38.068Z,21.55
2023-05-01T04:52:04.603Z,15.85
2023-05-01T04:54:30.965Z,15.10
2023-05-01T04:56:57.338Z,15.15
2023-05-01T04:59:23.781Z,13.52
2023-05-01T05:01:51.602Z,15.52
2023-05-01T05:04:18.063Z,15.00
2023-05-01T05:06:44.543Z,16.48
2023-05-01T05:09:10.933Z,14.23
2023-05-01T05:11:37.352Z,15.45
2023-05-01T05:14:03.718Z,16.70
2023-05-01T05:16:30.221Z,17.05
2023-05-01T05:18:58.018Z,16.48
2023-05-01T05:21:24.420Z,16.73
2023-05-01T05:23:50.873Z,13.77
2023-05-01T05:26:17.286Z,19.75
2023-05-01T05:28:43.662Z,16.23
2023-05-01T05:31:10.043Z,14.20
2023-05-01T05:33:36.449Z,17.52
2023-05-01T05:36:04.416Z,14.02
2023-05-01T05:38:30.836Z,16.95
2023-05-01T05:40:57.285Z,13.52
2023-05-01T05:43:25.531Z,15.77
2023-05-01T05:45:56.451Z,13.40
2023-05-01T05:48:22.872Z,15.95
2023-05-01T05:50:49.265Z,18.23
2023-05-01T05:53:17.084Z,12.60
2023-05-01T05:55:43.497Z,12.85
2023-05-01T05:58:09.873Z,15.10
2023-05-01T06:00:36.283Z,18.58
2023-05-01T06:03:02.872Z,13.32
2023-05-01T06:05:29.723Z,14.73
2023-05-01T06:07:56.155Z,16.80
2023-05-01T06:10:23.951Z,13.07
2023-05-01T06:12:53.434Z,13.10
2023-05-01T06:15:27.780Z,11.98
2023-05-01T06:17:54.288Z,12.00
2023-05-01T06:20:20.731Z,11.82
2023-05-01T06:22:47.131Z,15.45
2023-05-01T06:25:13.521Z,13.73
2023-05-01T06:27:41.245Z,15.38
2023-05-01T06:30:08.410Z,14.63
2023-05-01T06:32:34.875Z,16.90
2023-05-01T06:35:01.290Z,9.90
2023-05-01T06:37:27.701Z,12.48
2023-05-01T06:39:54.702Z,14.15
2023-05-01T06:42:21.453Z,15.13
2023-05-01T06:44:49.234Z,14.35
2023-05-01T06:47:15.693Z,14.07
2023-05-01T06:49:42.092Z,11.02
2023-05-01T06:52:08.452Z,10.90
2023-05-01T06:54:34.882Z,9.65
2023-05-01T06:57:01.283Z,10.75
2023-05-01T06:59:27.660Z,10.38
2023-05-01T07:01:55.551Z,14.20
2023-05-01T07:04:21.961Z,10.13
2023-05-01T07:06:48.540Z,13.38
2023-05-01T07:09:15.110Z,11.82
2023-05-01T07:11:41.505Z,15.07
2023-05-01T07:14:07.905Z,11.75
2023-05-01T07:16:34.447Z,12.77
2023-05-01T07:19:02.553Z,12.75
2023-05-01T07:21:28.947Z,13.13
2023-05-01T07:23:55.403Z,13.98
2023-05-01T07:26:21.848Z,12.45
2023-05-01T07:28:48.254Z,11.25
2023-05-01T07:31:14.711Z,17.20
2023-05-01T07:33:41.134Z,17.58
2023-05-01T07:36:08.949Z,12.60
2023-05-01T07:38:35.345Z,11.75
2023-05-01T07:41:01.748Z,12.38
2023-05-01T07:43:28.175Z,16.73
2023-05-01T07:45:55.034Z,14.73
2023-05-01T07:48:21.442Z,16.02
2023-05-01T07:50:47.849Z,12.43
2023-05-01T07:53:15.628Z,17.95
2023-05-01T07:55:41.988Z,11.57
2023-05-01T07:58:08.363Z,12.85
2023-05-01T08:00:35.224Z,12.77
2023-05-01T08:03:01.744Z,13.10
2023-05-01T08:05:28.291Z,14.88
2023-05-01T08:07:54.678Z,12.70
2023-05-01T08:10:22.442Z,17.23
2023-05-01T08:12:48.859Z,13.63
2023-05-01T08:15:15.432Z,14.05
2023-05-01T08:17:41.892Z,14.93
2023-05-01T08:20:08.910Z,9.88
2023-05-01T08:22:35.336Z,12.00
2023-05-01T08:25:01.746Z,10.70
2023-05-01T08:27:29.562Z,7.55
2023-05-01T08:29:56.195Z,7.90
2023-05-01T08:32:22.852Z,7.30
2023-05-01T08:34:49.281Z,7.95
2023-05-01T08:37:15.707Z,10.65
2023-05-01T08:39:42.146Z,7.22
2023-05-01T08:42:08.550Z,7.15
2023-05-01T08:44:37.979Z,6.63
2023-05-01T08:49:32.899Z,7.07
2023-05-01T08:52:01.708Z,5.97
2023-05-01T08:54:29.237Z,10.05
2023-05-01T08:56:56.605Z,6.18
2023-05-01T08:59:23.563Z,6.47
2023-05-01T09:01:51.686Z,7.90
2023-05-01T09:04:18.456Z,7.60
2023-05-01T09:06:45.053Z,7.68
2023-05-01T09:09:11.620Z,6.10
2023-05-01T09:11:38.133Z,7.85
2023-05-01T09:14:04.688Z,5.40
2023-05-01T09:16:31.509Z,5.72
2023-05-01T09:18:59.421Z,7.38
2023-05-01T09:21:27.126Z,7.28
2023-05-01T09:23:53.630Z,6.25
2023-05-01T09:26:20.107Z,6.07
2023-05-01T09:28:47.849Z,5.70
2023-05-01T09:31:21.420Z,6.25
2023-05-01T09:33:51.450Z,5.63
2023-05-01T09:36:19.302Z,6.97
2023-05-01T09:38:45.841Z,8.50
2023-05-01T09:41:12.404Z,8.40
2023-05-01T09:43:38.904Z,7.38
2023-05-01T09:46:06.873Z,6.38
2023-05-01T09:48:35.382Z,4.93
2023-05-01T09:51:19.500Z,4.18
2023-05-01T09:53:47.362Z,7.55
2023-05-01T09:56:13.815Z,7.85
2023-05-01T09:58:40.276Z,5.07
2023-05-01T10:01:06.802Z,4.63
2023-05-01T10:03:34.034Z,5.47
2023-05-01T10:06:00.652Z,4.28
2023-05-01T10:08:27.269Z,5.53
2023-05-01T10:11:02.326Z,5.13
2023-05-01T10:13:28.940Z,4.38
2023-05-01T10:15:55.348Z,4.35
2023-05-01T10:18:22.527Z,3.17
2023-05-01T10:20:49.251Z,3.75
2023-05-01T10:23:15.796Z,6.30
2023-05-01T10:25:42.438Z,8.02
2023-05-01T10:28:11.790Z,4.88
2023-05-01T10:33:05.373Z,4.70
2023-05-01T10:35:34.062Z,4.05
2023-05-01T10:38:01.093Z,3.08
2023-05-01T10:40:47.721Z,3.20
2023-05-01T10:43:16.701Z,5.70
2023-05-01T10:45:43.580Z,4.43
2023-05-01T10:48:10.160Z,5.32
2023-05-01T10:51:00.394Z,4.43
2023-05-01T10:53:26.877Z,4.82
2023-05-01T10:55:53.424Z,5.68
2023-05-01T10:58:38.716Z,3.20
2023-05-01T11:01:23.777Z,2.75
2023-05-01T11:03:51.764Z,4.82
2023-05-01T11:06:18.404Z,4.20
2023-05-01T11:08:45.554Z,3.35
2023-05-01T11:11:31.776Z,7.93
2023-05-01T11:13:58.340Z,7.22
2023-05-01T11:16:41.007Z,5.13
2023-05-01T11:19:09.821Z,4.72
2023-05-01T11:21:36.790Z,3.22
2023-05-01T11:24:03.339Z,5.13
2023-05-01T11:26:32.295Z,4.57
2023-05-01T11:28:59.922Z,4.68
2023-05-01T11:31:26.936Z,3.92
2023-05-01T11:33:55.914Z,4.22
2023-05-01T11:36:24.371Z,3.75
2023-05-01T11:38:51.216Z,4.20
2023-05-01T11:41:20.355Z,3.67
2023-05-01T11:43:51.661Z,5.25
2023-05-01T11:46:23.765Z,6.18
2023-05-01T11:48:50.682Z,6.05
2023-05-01T11:51:17.373Z,11.10
2023-05-01T11:53:57.401Z,6.05
2023-05-01T11:56:26.971Z,4.95
2023-05-01T11:58:54.418Z,3.10
2023-05-01T12:01:20.893Z,6.80
2023-05-01T12:03:47.390Z,4.35
2023-05-01T12:06:14.113Z,3.10
2023-05-01T12:08:48.132Z,2.63
2023-05-01T12:11:14.695Z,3.38
2023-05-01T12:13:41.371Z,4.75
2023-05-01T12:16:08.252Z,4.18
2023-05-01T12:18:34.707Z,5.57
2023-05-01T12:21:01.143Z,4.70
2023-05-01T12:23:31.064Z,9.68
2023-05-01T12:25:58.841Z,4.10
2023-05-01T12:28:25.309Z,3.88
2023-05-01T12:30:51.737Z,6.60
2023-05-01T12:33:19.186Z,4.80
2023-05-01T12:35:47.077Z,2.45
2023-05-01T12:38:14.446Z,3.03
2023-05-01T12:40:41.298Z,2.60
2023-05-01T12:43:09.220Z,3.88
2023-05-01T12:45:39.045Z,3.03
2023-05-01T12:48:09.910Z,4.40
2023-05-01T12:50:36.783Z,3.80
2023-05-01T12:53:03.274Z,5.38
2023-05-01T12:55:29.754Z,4.07
2023-05-01T12:57:56.383Z,2.75
2023-05-01T13:00:24.276Z,3.03
2023-05-01T13:02:50.878Z,4.10
2023-05-01T13:05:17.843Z,3.58
2023-05-01T13:07:48.102Z,2.53
2023-05-01T13:10:14.922Z,3.60
2023-05-01T13:12:44.174Z,3.58
2023-05-01T13:17:38.625Z,4.40
2023-05-01T13:20:05.625Z,7.07
2023-05-01T13:22:32.330Z,3.38
2023-05-01T13:24:59.081Z,4.65
2023-05-01T13:27:25.819Z,4.43
2023-05-01T13:29:53.482Z,2.63
2023-05-01T13:32:19.968Z,2.17
2023-05-01T13:34:47.720Z,2.95
2023-05-01T13:37:14.255Z,2.00
2023-05-01T13:39:41.429Z,4.32
2023-05-01T13:42:07.848Z,3.10
2023-05-01T13:44:42.198Z,2.33
2023-05-01T13:47:08.709Z,2.67
2023-05-01T13:49:35.069Z,2.50
2023-05-01T13:52:02.918Z,2.33
2023-05-01T13:54:29.408Z,2.90
2023-05-01T13:56:55.862Z,2.85
2023-05-01T13:59:22.329Z,2.15
2023-05-01T14:01:48.941Z,2.20
2023-05-01T14:04:16.529Z,4.43
2023-05-01T14:06:49.379Z,2.17
2023-05-01T14:09:18.063Z,2.40
2023-05-01T14:11:45.303Z,3.00
2023-05-01T14:14:11.715Z,2.10
2023-05-01T14:16:40.624Z,4.10
2023-05-01T14:19:07.193Z,4.32
2023-05-01T14:21:38.837Z,4.05
2023-05-01T14:24:07.488Z,3.83
2023-05-01T14:26:37.295Z,2.53
2023-05-01T14:29:03.771Z,6.90
2023-05-01T14:31:30.527Z,5.05
2023-05-01T14:33:57.877Z,5.13
2023-05-01T14:36:24.583Z,2.63
2023-05-01T14:38:51.244Z,3.58
2023-05-01T14:41:17.916Z,4.43
2023-05-01T14:43:45.703Z,2.30
2023-05-01T14:46:15.559Z,4.18
2023-05-01T14:48:42.136Z,2.97
2023-05-01T14:51:10.325Z,3.42
2023-05-01T14:53:37.268Z,2.15
2023-05-01T14:56:03.863Z,3.10
2023-05-01T14:58:30.307Z,2.08
2023-05-01T15:00:58.081Z,3.42
2023-05-01T15:03:25.016Z,3.78
2023-05-01T15:06:05.592Z,1.98
2023-05-01T15:08:32.016Z,2.30
2023-05-01T15:11:02.332Z,2.22
2023-05-01T15:13:28.932Z,2.95
2023-05-01T15:16:03.379Z,3.58
2023-05-01T15:18:33.265Z,3.15
2023-05-01T15:21:00.088Z,2.53
2023-05-01T15:23:26.651Z,4.90
2023-05-01T15:25:56.343Z,4.55
2023-05-01T15:28:23.062Z,3.88
2023-05-01T15:30:51.623Z,3.08
2023-05-01T15:33:19.861Z,2.65
2023-05-01T15:35:47.290Z,3.08
2023-05-01T15:38:14.362Z,2.95
2023-05-01T15:40:43.036Z,6.00
2023-05-01T15:43:12.671Z,5.35
2023-05-01T15:45:42.307Z,3.50
2023-05-01T15:48:09.144Z,4.32
2023-05-01T15:50:38.711Z,2.97
2023-05-01T15:53:05.610Z,2.70
2023-05-01T15:55:32.373Z,5.15
2023-05-01T15:57:59.218Z,2.15
2023-05-01T16:00:26.167Z,5.32
2023-05-01T16:02:57.333Z,2.50
2023-05-01T16:05:25.498Z,5.65
2023-05-01T16:07:58.005Z,3.42
2023-05-01T16:10:26.909Z,4.32
2023-05-01T16:12:58.248Z,3.75
2023-05-01T16:15:26.046Z,2.60
2023-05-01T16:20:46.083Z,6.07
2023-05-01T16:23:17.310Z,3.58
2023-05-01T16:25:47.458Z,5.13
2023-05-01T16:28:17.462Z,3.03
2023-05-01T16:30:47.492Z,3.78
2023-05-01T16:33:19.300Z,3.20
2023-05-01T16:38:38.412Z,4.43
2023-05-01T16:41:07.575Z,2.60
2023-05-01T16:43:33.985Z,2.85
2023-05-01T16:46:00.602Z,2.90
2023-05-01T16:48:27.269Z,3.10
2023-05-01T16:50:53.803Z,3.50
2023-05-01T16:53:23.108Z,6.30
2023-05-01T16:58:39.083Z,3.95
2023-05-01T17:01:09.722Z,3.88
2023-05-01T17:03:57.338Z,3.20
2023-05-01T17:06:27.087Z,2.85
2023-05-01T17:08:55.473Z,4.95
2023-05-01T17:11:30.417Z,18.40
2023-05-01T17:14:02.258Z,3.70
2023-05-01T17:16:28.977Z,3.25
2023-05-01T17:19:06.079Z,5.68
2023-05-01T17:21:33.639Z,4.80
2023-05-01T17:24:04.019Z,4.35
2023-05-01T17:26:30.645Z,10.25
2023-05-01T17:28:57.163Z,20.73
2023-05-01T17:31:25.153Z,14.73
2023-05-01T17:33:51.818Z,7.65
2023-05-01T17:36:20.740Z,3.60
2023-05-01T17:38:47.377Z,5.43
2023-05-01T17:41:19.955Z,4.32
2023-05-01T17:43:47.717Z,4.82
2023-05-01T17:46:17.330Z,4.00
2023-05-01T17:48:46.624Z,4.55
2023-05-01T17:53:39.592Z,3.72
2023-05-01T17:56:08.463Z,6.63
2023-05-01T17:58:35.211Z,8.48
2023-05-01T18:01:01.855Z,3.83
2023-05-01T18:03:30.562Z,6.00
2023-05-01T18:05:58.518Z,4.20
2023-05-01T18:08:25.179Z,5.07
2023-05-01T18:10:51.701Z,5.05
2023-05-01T18:13:18.432Z,7.40
2023-05-01T18:15:44.964Z,4.88
2023-05-01T18:18:11.704Z,5.60
2023-05-01T18:20:40.556Z,6.50
2023-05-01T18:23:08.429Z,7.07
2023-05-01T18:25:34.989Z,6.70
2023-05-01T18:28:01.416Z,6.20
2023-05-01T18:30:27.833Z,7.97
2023-05-01T18:32:54.239Z,7.57
2023-05-01T18:35:20.613Z,7.03
2023-05-01T18:37:47.149Z,4.65
2023-05-01T18:40:15.048Z,5.80
2023-05-01T18:42:41.429Z,7.05
2023-05-01T18:45:08.231Z,8.27
2023-05-01T18:47:34.631Z,7.95
2023-05-01T18:50:01.440Z,5.00
2023-05-01T18:52:29.177Z,6.80
2023-05-01T18:54:55.628Z,6.00
2023-05-01T18:57:23.374Z,4.82
2023-05-01T18:59:49.817Z,4.68
2023-05-01T19:02:16.289Z,4.25
2023-05-01T19:04:56.121Z,4.32
2023-05-01T19:07:23.584Z,4.32
2023-05-01T19:09:49.985Z,4.03
2023-05-01T19:12:16.411Z,7.57
2023-05-01T19:14:44.268Z,6.60
2023-05-01T19:17:10.718Z,5.05
2023-05-01T19:19:37.129Z,5.95
2023-05-01T19:22:03.479Z,8.55
2023-05-01T19:24:29.897Z,4.13
2023-05-01T19:26:56.267Z,7.13
2023-05-01T19:29:22.737Z,5.40
2023-05-01T19:31:50.587Z,4.05
2023-05-01T19:34:17.034Z,5.35
2023-05-01T19:36:43.491Z,8.88
2023-05-01T19:39:09.844Z,5.97
2023-05-01T19:41:36.298Z,4.53
2023-05-01T19:44:02.734Z,6.60
2023-05-01T19:46:29.203Z,5.63
2023-05-01T19:48:56.987Z,7.00
2023-05-01T19:51:23.417Z,7.00
2023-05-01T19:53:50.924Z,4.60
2023-05-01T19:56:17.320Z,6.55
2023-05-01T19:58:43.680Z,5.82
2023-05-01T20:01:10.076Z,5.10
2023-05-01T20:03:36.510Z,4.15
2023-05-01T20:06:04.848Z,7.38
2023-05-01T20:08:32.618Z,4.03
2023-05-01T20:10:59.049Z,5.53
2023-05-01T20:13:25.454Z,6.15
2023-05-01T20:15:51.894Z,7.22
2023-05-01T20:18:18.317Z,8.75
2023-05-01T20:20:44.749Z,10.05
2023-05-01T20:23:13.372Z,7.50
2023-05-01T20:25:39.810Z,5.47
2023-05-01T20:28:06.543Z,9.73
2023-05-01T20:30:33.032Z,3.63
2023-05-01T20:32:59.462Z,9.40
2023-05-01T20:35:25.940Z,6.95
2023-05-01T20:37:52.348Z,7.78
2023-05-01T20:40:20.114Z,5.82
2023-05-01T20:42:46.498Z,8.70
2023-05-01T20:45:12.909Z,5.60
2023-05-01T20:47:39.343Z,7.57
2023-05-01T20:50:06.105Z,4.40
2023-05-01T20:52:38.623Z,5.70
2023-05-01T21:47:21.869Z,7.63
2023-05-01T21:56:25.115Z,11.30
2023-05-01T21:59:38.854Z,9.30
2023-05-01T22:02:08.621Z,7.78
2023-05-01T22:04:38.315Z,11.15
2023-05-01T22:07:25.699Z,12.05
2023-05-01T22:09:53.634Z,7.93
2023-05-01T22:12:19.991Z,8.15
2023-05-01T22:14:47.554Z,13.93
2023-05-01T22:17:14.236Z,8.93
2023-05-01T22:19:40.625Z,9.75
2023-05-01T22:22:07.040Z,9.73
2023-05-01T22:24:33.388Z,9.93
2023-05-01T22:27:01.628Z,7.35
2023-05-01T22:29:28.012Z,6.47
2023-05-01T22:31:55.499Z,6.82
2023-05-01T22:34:22.069Z,13.30
2023-05-01T22:36:48.460Z,8.18
2023-05-01T22:39:14.837Z,8.38
2023-05-01T22:41:41.185Z,9.57
2023-05-01T22:44:08.932Z,9.98
2023-05-01T22:46:35.429Z,8.30
2023-05-01T22:49:05.023Z,6.75
2023-05-01T22:51:31.426Z,9.82
2023-05-01T22:53:57.846Z,9.02
2023-05-01T22:56:24.235Z,9.63
2023-05-01T22:58:50.634Z,7.18
2023-05-01T23:01:18.441Z,8.35
2023-05-01T23:03:44.979Z,10.77
2023-05-01T23:06:11.536Z,10.55
2023-05-01T23:08:37.931Z,11.02
2023-05-01T23:11:04.666Z,9.43
2023-05-01T23:13:31.012Z,8.68
2023-05-01T23:15:57.790Z,8.13
2023-05-01T23:18:30.134Z,10.15
2023-05-01T23:20:56.628Z,12.35
2023-05-01T23:23:29.210Z,9.55
2023-05-01T23:25:55.623Z,11.88
2023-05-01T23:28:22.599Z,9.73
2023-05-01T23:30:52.691Z,9.65
2023-05-01T23:33:21.566Z,8.90
2023-05-01T23:35:49.435Z,9.38
2023-05-01T23:38:15.987Z,10.82
2023-05-01T23:40:42.449Z,10.55
2023-05-01T23:43:08.903Z,12.25
2023-05-01T23:45:35.331Z,10.10
2023-05-01T23:48:01.772Z,17.20
2023-05-01T23:50:28.252Z,16.05
2023-05-01T23:52:56.416Z,11.95
2023-05-01T23:55:22.795Z,10.05
2023-05-01T23:57:49.186Z,13.95
